sensor_id;sensor_type;location;lat;lon;timestamp;pressure;altitude;pressure_sealevel;temperature;humidity
7930;BME280;4010;42.698;23.124;2022-09-13T00:01:10;101270.31;;;-140.64;100.00
7930;BME280;4010;42.698;23.124;2022-09-13T00:03:39;103892.72;;;-140.64;100.00
7930;BME280;4010;42.698;23.124;2022-09-13T00:06:07;102319.03;;;-140.64;100.00
7930;BME280;4010;42.698;23.124;2022-09-13T00:08:34;102056.84;;;-140.64;100.00
7930;BME280;4010;42.698;23.124;2022-09-13T00:11:01;100746.06;;;-140.64;100.00
7930;BME280;4010;42.698;23.124;2022-09-13T00:13:28;102319.03;;;-140.64;100.00
7930;BME280;4010;42.698;23.124;2022-09-13T00:15:54;103630.41;;;-140.64;100.00
7930;BME280;4010;42.698;23.124;2022-09-13T00:18:22;107567.41;;;-140.64;100.00
7930;BME280;4010;42.698;23.124;2022-09-13T00:20:51;106779.66;;;-140.64;100.00
7930;BME280;4010;42.698;23.124;2022-09-13T00:23:17;115773.47;;;-140.64;100.00
7930;BME280;4010;42.698;23.124;2022-09-13T00:25:44;118349.16;;;-140.64;100.00
7930;BME280;4010;42.698;23.124;2022-09-13T00:28:11;118349.16;;;-140.64;100.00
7930;BME280;4010;42.698;23.124;2022-09-13T00:30:37;118349.16;;;-140.64;100.00
7930;BME280;4010;42.698;23.124;2022-09-13T00:33:04;118349.16;;;-140.64;100.00
7930;BME280;4010;42.698;23.124;2022-09-13T00:35:31;118349.16;;;-140.64;100.00
7930;BME280;4010;42.698;23.124;2022-09-13T00:38:00;118349.16;;;-140.64;100.00
7930;BME280;4010;42.698;23.124;2022-09-13T00:40:27;118349.16;;;-140.64;100.00
7930;BME280;4010;42.698;23.124;2022-09-13T00:42:54;118349.16;;;-140.64;100.00
7930;BME280;4010;42.698;23.124;2022-09-13T00:45:21;118349.16;;;-140.64;100.00
7930;BME280;4010;42.698;23.124;2022-09-13T00:47:52;118349.16;;;-140.64;100.00
7930;BME280;4010;42.698;23.124;2022-09-13T00:50:24;118349.16;;;-140.64;100.00
7930;BME280;4010;42.698;23.124;2022-09-13T00:52:57;118349.16;;;-140.64;100.00
7930;BME280;4010;42.698;23.124;2022-09-13T00:55:31;118349.16;;;-140.64;100.00
7930;BME280;4010;42.698;23.124;2022-09-13T00:58:03;118349.16;;;-140.64;100.00
7930;BME280;4010;42.698;23.124;2022-09-13T01:00:31;118349.16;;;-140.64;100.00
7930;BME280;4010;42.698;23.124;2022-09-13T01:03:01;118349.16;;;-140.64;100.00
7930;BME280;4010;42.698;23.124;2022-09-13T01:05:34;118349.16;;;-140.64;100.00
7930;BME280;4010;42.698;23.124;2022-09-13T01:08:03;118349.16;;;-140.64;100.00
7930;BME280;4010;42.698;23.124;2022-09-13T01:10:42;118349.16;;;-140.64;100.00
7930;BME280;4010;42.698;23.124;2022-09-13T01:13:13;118349.16;;;-140.64;100.00
7930;BME280;4010;42.698;23.124;2022-09-13T01:15:42;118349.16;;;-140.64;100.00
7930;BME280;4010;42.698;23.124;2022-09-13T01:18:10;118349.16;;;-140.64;100.00
7930;BME280;4010;42.698;23.124;2022-09-13T01:20:45;118349.16;;;-140.64;100.00
7930;BME280;4010;42.698;23.124;2022-09-13T01:23:42;118349.16;;;-140.64;100.00
7930;BME280;4010;42.698;23.124;2022-09-13T01:26:48;118349.16;;;-140.64;100.00
7930;BME280;4010;42.698;23.124;2022-09-13T01:32:34;118349.16;;;-140.64;100.00
7930;BME280;4010;42.698;23.124;2022-09-13T01:35:13;118349.16;;;-140.64;100.00
7930;BME280;4010;42.698;23.124;2022-09-13T01:37:50;118349.16;;;-140.64;100.00
7930;BME280;4010;42.698;23.124;2022-09-13T01:40:33;118349.16;;;-140.64;100.00
7930;BME280;4010;42.698;23.124;2022-09-13T01:43:14;118349.16;;;-140.64;100.00
7930;BME280;4010;42.698;23.124;2022-09-13T01:45:51;118349.16;;;-140.64;100.00
7930;BME280;4010;42.698;23.124;2022-09-13T01:48:31;118349.16;;;-140.64;100.00
7930;BME280;4010;42.698;23.124;2022-09-13T01:51:04;118349.16;;;-140.64;100.00
7930;BME280;4010;42.698;23.124;2022-09-13T01:53:37;118349.16;;;-140.64;100.00
7930;BME280;4010;42.698;23.124;2022-09-13T01:56:11;118349.16;;;-140.64;100.00
7930;BME280;4010;42.698;23.124;2022-09-13T01:58:47;118349.16;;;-140.64;100.00
7930;BME280;4010;42.698;23.124;2022-09-13T02:01:18;118349.16;;;-140.64;100.00
7930;BME280;4010;42.698;23.124;2022-09-13T02:03:52;118349.16;;;-140.64;100.00
7930;BME280;4010;42.698;23.124;2022-09-13T02:06:22;118349.16;;;-140.64;100.00
7930;BME280;4010;42.698;23.124;2022-09-13T02:08:54;118349.16;;;-140.64;100.00
7930;BME280;4010;42.698;23.124;2022-09-13T02:11:22;118349.16;;;-140.64;100.00
7930;BME280;4010;42.698;23.124;2022-09-13T02:13:54;118166.00;;;-140.64;100.00
7930;BME280;4010;42.698;23.124;2022-09-13T02:16:26;114138.94;;;-140.64;100.00
7930;BME280;4010;42.698;23.124;2022-09-13T02:18:58;108355.34;;;-140.64;100.00
7930;BME280;4010;42.698;23.124;2022-09-13T02:21:29;109931.75;;;-140.64;100.00
7930;BME280;4010;42.698;23.124;2022-09-13T02:24:01;107830.03;;;-140.64;100.00
7930;BME280;4010;42.698;23.124;2022-09-13T02:26:30;103105.78;;;-140.64;100.00
7930;BME280;4010;42.698;23.124;2022-09-13T02:29:00;103105.78;;;-140.64;100.00
7930;BME280;4010;42.698;23.124;2022-09-13T02:31:33;102843.53;;;-140.64;100.00
7930;BME280;4010;42.698;23.124;2022-09-13T02:34:07;104417.44;;;-140.64;100.00
7930;BME280;4010;42.698;23.124;2022-09-13T02:36:37;99959.88;;;-140.64;100.00
7930;BME280;4010;42.698;23.124;2022-09-13T02:39:08;97602.28;;;-140.64;100.00
7930;BME280;4010;42.698;23.124;2022-09-13T02:41:43;98649.91;;;-140.64;100.00
7930;BME280;4010;42.698;23.124;2022-09-13T02:44:14;94984.63;;;-140.64;100.00
7930;BME280;4010;42.698;23.124;2022-09-13T02:46:58;92107.47;;;-140.64;100.00
7930;BME280;4010;42.698;23.124;2022-09-13T02:49:37;89755.22;;;-140.64;100.00
7930;BME280;4010;42.698;23.124;2022-09-13T02:52:13;89232.72;;;-140.64;100.00
7930;BME280;4010;42.698;23.124;2022-09-13T02:54:51;86621.34;;;-140.64;100.00
7930;BME280;4010;42.698;23.124;2022-09-13T02:57:24;84533.69;;;-140.64;100.00
7930;BME280;4010;42.698;23.124;2022-09-13T02:59:56;81143.94;;;-140.64;100.00
7930;BME280;4010;42.698;23.124;2022-09-13T03:02:26;79841.09;;;-140.64;100.00
7930;BME280;4010;42.698;23.124;2022-09-13T03:04:55;79841.09;;;-140.64;100.00
7930;BME280;4010;42.698;23.124;2022-09-13T03:07:23;80362.19;;;-140.64;100.00
7930;BME280;4010;42.698;23.124;2022-09-13T03:09:52;80362.19;;;-140.64;100.00
7930;BME280;4010;42.698;23.124;2022-09-13T03:12:32;79320.09;;;-140.64;100.00
7930;BME280;4010;42.698;23.124;2022-09-13T03:15:10;76976.53;;;-140.64;100.00
7930;BME280;4010;42.698;23.124;2022-09-13T03:17:48;78017.91;;;-140.64;100.00
7930;BME280;4010;42.698;23.124;2022-09-13T03:20:24;80883.34;;;-140.64;100.00
7930;BME280;4010;42.698;23.124;2022-09-13T03:26:21;81665.25;;;-140.64;100.00
7930;BME280;4010;42.698;23.124;2022-09-13T03:28:58;79841.09;;;-140.64;100.00
7930;BME280;4010;42.698;23.124;2022-09-13T03:31:31;81404.59;;;-140.64;100.00
7930;BME280;4010;42.698;23.124;2022-09-13T03:34:05;80622.75;;;-140.64;100.00
7930;BME280;4010;42.698;23.124;2022-09-13T03:36:38;81925.91;;;-140.64;100.00
7930;BME280;4010;42.698;23.124;2022-09-13T03:39:12;79841.09;;;-140.64;100.00
7930;BME280;4010;42.698;23.124;2022-09-13T03:41:46;80362.19;;;-140.64;100.00
7930;BME280;4010;42.698;23.124;2022-09-13T03:44:19;78017.91;;;-140.64;100.00
7930;BME280;4010;42.698;23.124;2022-09-13T03:46:50;76455.97;;;-140.64;100.00
7930;BME280;4010;42.698;23.124;2022-09-13T03:49:19;74894.72;;;-140.64;100.00
7930;BME280;4010;42.698;23.124;2022-09-13T03:51:50;73334.19;;;-140.64;100.00
7930;BME280;4010;42.698;23.124;2022-09-13T03:54:20;73594.22;;;-140.64;100.00
7930;BME280;4010;42.698;23.124;2022-09-13T03:57:08;73594.22;;;-140.64;100.00
7930;BME280;4010;42.698;23.124;2022-09-13T03:59:35;72294.22;;;-140.64;100.00
7930;BME280;4010;42.698;23.124;2022-09-13T04:02:03;73074.16;;;-140.64;100.00
7930;BME280;4010;42.698;23.124;2022-09-13T04:04:30;71254.59;;;-140.64;100.00
7930;BME280;4010;42.698;23.124;2022-09-13T04:06:58;68656.84;;;-140.64;100.00
7930;BME280;4010;42.698;23.124;2022-09-13T04:09:27;67099.16;;;-140.64;100.00
7930;BME280;4010;42.698;23.124;2022-09-13T04:11:54;65801.63;;;-140.64;100.00
7930;BME280;4010;42.698;23.124;2022-09-13T04:14:21;65023.34;;;-140.64;100.00
7930;BME280;4010;42.698;23.124;2022-09-13T04:16:51;63726.63;;;-140.64;100.00
7930;BME280;4010;42.698;23.124;2022-09-13T04:19:17;63985.91;;;-140.64;100.00
7930;BME280;4010;42.698;23.124;2022-09-13T04:21:46;64245.25;;;-140.64;100.00
7930;BME280;4010;42.698;23.124;2022-09-13T04:24:14;65282.75;;;-140.64;100.00
7930;BME280;4010;42.698;23.124;2022-09-13T04:26:41;68397.19;;;-140.64;100.00
7930;BME280;4010;42.698;23.124;2022-09-13T04:29:08;69955.47;;;-140.64;100.00
7930;BME280;4010;42.698;23.124;2022-09-13T04:31:35;72554.19;;;-140.64;100.00
7930;BME280;4010;42.698;23.124;2022-09-13T04:34:02;73594.22;;;-140.64;100.00
7930;BME280;4010;42.698;23.124;2022-09-13T04:36:31;75415.06;;;-140.64;100.00
7930;BME280;4010;42.698;23.124;2022-09-13T04:38:58;82708.03;;;-140.64;100.00
7930;BME280;4010;42.698;23.124;2022-09-13T04:41:26;94461.31;;;-140.64;100.00
7930;BME280;4010;42.698;23.124;2022-09-13T04:43:53;103630.41;;;-140.64;100.00
7930;BME280;4010;42.698;23.124;2022-09-13T04:46:20;118349.16;;;-140.64;100.00
7930;BME280;4010;42.698;23.124;2022-09-13T04:48:48;118349.16;;;-140.64;100.00
7930;BME280;4010;42.698;23.124;2022-09-13T04:51:15;118349.16;;;-140.64;100.00
7930;BME280;4010;42.698;23.124;2022-09-13T04:53:42;118349.16;;;-140.64;100.00
7930;BME280;4010;42.698;23.124;2022-09-13T04:56:09;118349.16;;;-140.64;100.00
7930;BME280;4010;42.698;23.124;2022-09-13T04:58:39;118349.16;;;-140.64;100.00
7930;BME280;4010;42.698;23.124;2022-09-13T05:01:08;118349.16;;;-140.64;100.00
7930;BME280;4010;42.698;23.124;2022-09-13T05:03:35;118349.16;;;-140.64;100.00
7930;BME280;4010;42.698;23.124;2022-09-13T05:06:03;118349.16;;;-140.64;100.00
7930;BME280;4010;42.698;23.124;2022-09-13T05:08:29;118349.16;;;-140.64;100.00
7930;BME280;4010;42.698;23.124;2022-09-13T05:10:56;118349.16;;;-140.64;100.00
7930;BME280;4010;42.698;23.124;2022-09-13T05:13:23;118349.16;;;-140.64;100.00
7930;BME280;4010;42.698;23.124;2022-09-13T05:15:54;118349.16;;;-140.64;100.00
7930;BME280;4010;42.698;23.124;2022-09-13T05:18:21;118349.16;;;-140.64;100.00
7930;BME280;4010;42.698;23.124;2022-09-13T05:20:52;118349.16;;;-140.64;100.00
7930;BME280;4010;42.698;23.124;2022-09-13T05:23:20;118349.16;;;-140.64;100.00
7930;BME280;4010;42.698;23.124;2022-09-13T05:25:51;118349.16;;;-140.64;100.00
7930;BME280;4010;42.698;23.124;2022-09-13T05:28:18;118349.16;;;-140.64;100.00
7930;BME280;4010;42.698;23.124;2022-09-13T05:30:54;118349.16;;;-140.64;100.00
7930;BME280;4010;42.698;23.124;2022-09-13T05:33:21;118349.16;;;-140.64;100.00
7930;BME280;4010;42.698;23.124;2022-09-13T05:35:49;118349.16;;;-140.64;100.00
7930;BME280;4010;42.698;23.124;2022-09-13T05:38:15;118349.16;;;-140.64;100.00
7930;BME280;4010;42.698;23.124;2022-09-13T05:40:42;118349.16;;;-140.64;100.00
7930;BME280;4010;42.698;23.124;2022-09-13T05:43:09;118349.16;;;-140.64;100.00
7930;BME280;4010;42.698;23.124;2022-09-13T05:45:36;118349.16;;;-140.64;100.00
7930;BME280;4010;42.698;23.124;2022-09-13T05:48:04;118349.16;;;-140.64;100.00
7930;BME280;4010;42.698;23.124;2022-09-13T05:50:35;118349.16;;;-140.64;100.00
7930;BME280;4010;42.698;23.124;2022-09-13T05:53:02;118349.16;;;-140.64;100.00
7930;BME280;4010;42.698;23.124;2022-09-13T05:55:29;118349.16;;;-140.64;100.00
7930;BME280;4010;42.698;23.124;2022-09-13T05:57:56;118349.16;;;-140.64;100.00
7930;BME280;4010;42.698;23.124;2022-09-13T06:00:23;118349.16;;;-140.64;100.00
7930;BME280;4010;42.698;23.124;2022-09-13T06:02:49;118349.16;;;-140.64;100.00
7930;BME280;4010;42.698;23.124;2022-09-13T06:05:17;118349.16;;;-140.64;100.00
7930;BME280;4010;42.698;23.124;2022-09-13T06:07:44;118349.16;;;-140.64;100.00
7930;BME280;4010;42.698;23.124;2022-09-13T06:10:11;118349.16;;;-140.64;100.00
7930;BME280;4010;42.698;23.124;2022-09-13T06:12:37;118349.16;;;-140.64;100.00
7930;BME280;4010;42.698;23.124;2022-09-13T06:15:05;118349.16;;;-140.64;100.00
7930;BME280;4010;42.698;23.124;2022-09-13T06:17:32;118349.16;;;-140.64;100.00
7930;BME280;4010;42.698;23.124;2022-09-13T06:19:58;118349.16;;;-140.64;100.00
7930;BME280;4010;42.698;23.124;2022-09-13T06:22:26;118349.16;;;-140.64;100.00
7930;BME280;4010;42.698;23.124;2022-09-13T06:24:57;118349.16;;;-140.64;100.00
7930;BME280;4010;42.698;23.124;2022-09-13T06:27:24;118349.16;;;-140.64;100.00
7930;BME280;4010;42.698;23.124;2022-09-13T06:29:51;118349.16;;;-140.64;100.00
7930;BME280;4010;42.698;23.124;2022-09-13T06:32:17;118349.16;;;-140.64;100.00
7930;BME280;4010;42.698;23.124;2022-09-13T06:34:44;118349.16;;;-140.64;100.00
7930;BME280;4010;42.698;23.124;2022-09-13T06:37:11;118349.16;;;-140.64;100.00
7930;BME280;4010;42.698;23.124;2022-09-13T06:39:40;118349.16;;;-140.64;100.00
7930;BME280;4010;42.698;23.124;2022-09-13T06:42:07;118349.16;;;-140.64;100.00
7930;BME280;4010;42.698;23.124;2022-09-13T06:44:34;118349.16;;;-140.64;100.00
7930;BME280;4010;42.698;23.124;2022-09-13T06:47:00;118349.16;;;-140.64;100.00
7930;BME280;4010;42.698;23.124;2022-09-13T06:49:27;118349.16;;;-140.64;100.00
7930;BME280;4010;42.698;23.124;2022-09-13T06:51:55;118349.16;;;-140.64;100.00
7930;BME280;4010;42.698;23.124;2022-09-13T06:54:22;118349.16;;;-140.64;100.00
7930;BME280;4010;42.698;23.124;2022-09-13T06:56:50;118349.16;;;-140.64;100.00
7930;BME280;4010;42.698;23.124;2022-09-13T06:59:17;118349.16;;;-140.64;100.00
7930;BME280;4010;42.698;23.124;2022-09-13T07:01:44;118349.16;;;-140.64;100.00
7930;BME280;4010;42.698;23.124;2022-09-13T07:04:12;118349.16;;;-140.64;100.00
7930;BME280;4010;42.698;23.124;2022-09-13T07:06:41;118349.16;;;-140.64;100.00
7930;BME280;4010;42.698;23.124;2022-09-13T07:09:12;118349.16;;;-140.64;100.00
7930;BME280;4010;42.698;23.124;2022-09-13T07:11:40;118349.16;;;-140.64;98.90
7930;BME280;4010;42.698;23.124;2022-09-13T07:14:12;118349.16;;;-140.64;100.00
7930;BME280;4010;42.698;23.124;2022-09-13T07:16:39;118349.16;;;-140.64;97.44
7930;BME280;4010;42.698;23.124;2022-09-13T07:19:11;118349.16;;;-140.64;100.00
7930;BME280;4010;42.698;23.124;2022-09-13T07:21:38;118349.16;;;-140.64;100.00
7930;BME280;4010;42.698;23.124;2022-09-13T07:24:05;118349.16;;;-140.64;99.87
7930;BME280;4010;42.698;23.124;2022-09-13T07:26:32;118349.16;;;-140.64;100.00
7930;BME280;4010;42.698;23.124;2022-09-13T07:29:00;118349.16;;;-140.64;100.00
7930;BME280;4010;42.698;23.124;2022-09-13T07:31:31;118349.16;;;-140.64;100.00
7930;BME280;4010;42.698;23.124;2022-09-13T07:33:59;118349.16;;;-140.64;100.00
7930;BME280;4010;42.698;23.124;2022-09-13T07:36:27;118349.16;;;-140.64;98.59
7930;BME280;4010;42.698;23.124;2022-09-13T07:38:54;118349.16;;;-140.64;100.00
7930;BME280;4010;42.698;23.124;2022-09-13T07:41:23;118349.16;;;-140.64;98.42
7930;BME280;4010;42.698;23.124;2022-09-13T07:43:50;118349.16;;;-140.64;100.00
7930;BME280;4010;42.698;23.124;2022-09-13T07:46:19;118349.16;;;-140.64;99.99
7930;BME280;4010;42.698;23.124;2022-09-13T07:48:48;118349.16;;;-140.64;100.00
7930;BME280;4010;42.698;23.124;2022-09-13T07:51:16;118349.16;;;-140.64;98.39
7930;BME280;4010;42.698;23.124;2022-09-13T07:53:45;118349.16;;;-140.64;98.18
7930;BME280;4010;42.698;23.124;2022-09-13T07:56:13;118349.16;;;-140.64;100.00
7930;BME280;4010;42.698;23.124;2022-09-13T07:58:41;118349.16;;;-140.64;100.00
7930;BME280;4010;42.698;23.124;2022-09-13T08:01:11;118349.16;;;-140.64;98.30
7930;BME280;4010;42.698;23.124;2022-09-13T08:03:38;118349.16;;;-140.64;97.66
7930;BME280;4010;42.698;23.124;2022-09-13T08:06:07;118349.16;;;-140.64;94.67
7930;BME280;4010;42.698;23.124;2022-09-13T08:08:35;118349.16;;;-140.64;97.95
7930;BME280;4010;42.698;23.124;2022-09-13T08:11:03;118349.16;;;-140.64;95.13
7930;BME280;4010;42.698;23.124;2022-09-13T08:13:30;118349.16;;;-140.64;100.00
7930;BME280;4010;42.698;23.124;2022-09-13T08:16:00;118349.16;;;-140.64;100.00
7930;BME280;4010;42.698;23.124;2022-09-13T08:18:28;118349.16;;;-140.64;93.93
7930;BME280;4010;42.698;23.124;2022-09-13T08:20:55;118349.16;;;-140.64;94.13
7930;BME280;4010;42.698;23.124;2022-09-13T08:23:24;118349.16;;;-140.64;92.76
7930;BME280;4010;42.698;23.124;2022-09-13T08:25:53;118349.16;;;-140.64;98.62
7930;BME280;4010;42.698;23.124;2022-09-13T08:28:20;118349.16;;;-140.64;91.10
7930;BME280;4010;42.698;23.124;2022-09-13T08:30:48;118349.16;;;-140.64;87.12
7930;BME280;4010;42.698;23.124;2022-09-13T08:33:14;118349.16;;;-140.64;91.26
7930;BME280;4010;42.698;23.124;2022-09-13T08:35:49;118349.16;;;-140.64;85.47
7930;BME280;4010;42.698;23.124;2022-09-13T08:38:16;118349.16;;;-140.64;87.61
7930;BME280;4010;42.698;23.124;2022-09-13T08:40:49;118349.16;;;-140.64;83.46
7930;BME280;4010;42.698;23.124;2022-09-13T08:43:23;118349.16;;;-140.64;74.38
7930;BME280;4010;42.698;23.124;2022-09-13T08:45:57;118349.16;;;-140.64;84.23
7930;BME280;4010;42.698;23.124;2022-09-13T08:48:31;118349.16;;;-140.64;81.09
7930;BME280;4010;42.698;23.124;2022-09-13T08:51:03;118349.16;;;-140.64;78.85
7930;BME280;4010;42.698;23.124;2022-09-13T08:53:39;118349.16;;;-140.64;76.84
7930;BME280;4010;42.698;23.124;2022-09-13T08:56:11;118349.16;;;-140.64;79.13
7930;BME280;4010;42.698;23.124;2022-09-13T08:58:58;118349.16;;;-140.64;78.87
7930;BME280;4010;42.698;23.124;2022-09-13T09:01:41;118349.16;;;-140.64;81.39
7930;BME280;4010;42.698;23.124;2022-09-13T09:04:27;118349.16;;;-140.64;84.89
7930;BME280;4010;42.698;23.124;2022-09-13T09:07:02;118349.16;;;-140.64;83.02
7930;BME280;4010;42.698;23.124;2022-09-13T09:09:32;118349.16;;;-140.64;81.69
7930;BME280;4010;42.698;23.124;2022-09-13T09:12:12;118349.16;;;-140.64;81.15
7930;BME280;4010;42.698;23.124;2022-09-13T09:14:44;118349.16;;;-140.64;75.52
7930;BME280;4010;42.698;23.124;2022-09-13T09:17:16;118349.16;;;-140.64;76.52
7930;BME280;4010;42.698;23.124;2022-09-13T09:19:48;118349.16;;;-140.64;72.06
7930;BME280;4010;42.698;23.124;2022-09-13T09:22:19;118349.16;;;-140.64;66.64
7930;BME280;4010;42.698;23.124;2022-09-13T09:24:49;118349.16;;;-140.64;73.65
7930;BME280;4010;42.698;23.124;2022-09-13T09:27:19;118349.16;;;-140.64;77.51
7930;BME280;4010;42.698;23.124;2022-09-13T09:29:47;118349.16;;;-140.64;76.01
7930;BME280;4010;42.698;23.124;2022-09-13T09:32:31;118349.16;;;-140.64;68.70
7930;BME280;4010;42.698;23.124;2022-09-13T09:35:11;118349.16;;;-140.64;81.71
7930;BME280;4010;42.698;23.124;2022-09-13T09:37:41;118349.16;;;-140.64;82.87
7930;BME280;4010;42.698;23.124;2022-09-13T09:40:12;118349.16;;;-140.64;71.71
7930;BME280;4010;42.698;23.124;2022-09-13T09:42:45;118349.16;;;-140.64;68.81
7930;BME280;4010;42.698;23.124;2022-09-13T09:45:24;118349.16;;;-140.64;68.80
7930;BME280;4010;42.698;23.124;2022-09-13T09:47:52;118349.16;;;-140.64;73.34
7930;BME280;4010;42.698;23.124;2022-09-13T09:50:22;118349.16;;;-140.64;65.19
7930;BME280;4010;42.698;23.124;2022-09-13T09:52:55;118349.16;;;-140.64;65.61
7930;BME280;4010;42.698;23.124;2022-09-13T09:55:27;118349.16;;;-140.64;70.27
7930;BME280;4010;42.698;23.124;2022-09-13T09:57:58;118349.16;;;-140.64;74.30
7930;BME280;4010;42.698;23.124;2022-09-13T10:00:26;118349.16;;;-140.64;64.92
7930;BME280;4010;42.698;23.124;2022-09-13T10:02:57;118349.16;;;-140.64;68.73
7930;BME280;4010;42.698;23.124;2022-09-13T10:05:26;118349.16;;;-140.64;68.19
7930;BME280;4010;42.698;23.124;2022-09-13T10:07:56;118349.16;;;-140.64;75.37
7930;BME280;4010;42.698;23.124;2022-09-13T10:10:25;118349.16;;;-140.64;65.07
7930;BME280;4010;42.698;23.124;2022-09-13T10:12:57;118349.16;;;-140.64;64.29
7930;BME280;4010;42.698;23.124;2022-09-13T10:15:26;118349.16;;;-140.64;67.75
7930;BME280;4010;42.698;23.124;2022-09-13T10:18:04;118349.16;;;-140.64;64.88
7930;BME280;4010;42.698;23.124;2022-09-13T10:20:32;118349.16;;;-140.64;63.35
7930;BME280;4010;42.698;23.124;2022-09-13T10:23:11;118349.16;;;-140.64;64.12
7930;BME280;4010;42.698;23.124;2022-09-13T10:25:43;118349.16;;;-140.64;71.28
7930;BME280;4010;42.698;23.124;2022-09-13T10:28:16;118349.16;;;-140.64;69.81
7930;BME280;4010;42.698;23.124;2022-09-13T10:30:47;118349.16;;;-140.64;81.01
7930;BME280;4010;42.698;23.124;2022-09-13T10:33:25;118349.16;;;-140.64;78.34
7930;BME280;4010;42.698;23.124;2022-09-13T10:35:54;118349.16;;;-140.64;72.33
7930;BME280;4010;42.698;23.124;2022-09-13T10:38:26;118349.16;;;-140.64;73.30
7930;BME280;4010;42.698;23.124;2022-09-13T10:40:54;118349.16;;;-140.64;68.54
7930;BME280;4010;42.698;23.124;2022-09-13T10:43:23;118349.16;;;-140.64;62.25
7930;BME280;4010;42.698;23.124;2022-09-13T10:45:52;118349.16;;;-140.64;60.58
7930;BME280;4010;42.698;23.124;2022-09-13T10:48:19;118349.16;;;-140.64;57.34
7930;BME280;4010;42.698;23.124;2022-09-13T10:51:04;118349.16;;;-140.64;60.04
7930;BME280;4010;42.698;23.124;2022-09-13T10:53:35;118349.16;;;-140.64;60.46
7930;BME280;4010;42.698;23.124;2022-09-13T10:56:03;118349.16;;;-140.64;59.39
7930;BME280;4010;42.698;23.124;2022-09-13T10:58:31;118349.16;;;-140.64;60.93
7930;BME280;4010;42.698;23.124;2022-09-13T11:01:12;118349.16;;;-140.64;64.21
7930;BME280;4010;42.698;23.124;2022-09-13T11:04:03;118349.16;;;-140.64;61.64
7930;BME280;4010;42.698;23.124;2022-09-13T11:06:40;118349.16;;;-140.64;64.38
7930;BME280;4010;42.698;23.124;2022-09-13T11:09:12;118349.16;;;-140.64;61.45
7930;BME280;4010;42.698;23.124;2022-09-13T11:11:46;118349.16;;;-140.64;62.57
7930;BME280;4010;42.698;23.124;2022-09-13T11:17:15;118349.16;;;-140.64;57.29
7930;BME280;4010;42.698;23.124;2022-09-13T11:19:57;118349.16;;;-140.64;54.14
7930;BME280;4010;42.698;23.124;2022-09-13T11:22:34;118349.16;;;-140.64;60.62
7930;BME280;4010;42.698;23.124;2022-09-13T11:25:10;118349.16;;;-140.64;57.16
7930;BME280;4010;42.698;23.124;2022-09-13T11:27:48;118349.16;;;-140.64;53.05
7930;BME280;4010;42.698;23.124;2022-09-13T11:30:19;118349.16;;;-140.64;53.77
7930;BME280;4010;42.698;23.124;2022-09-13T11:33:12;118349.16;;;-140.64;56.92
7930;BME280;4010;42.698;23.124;2022-09-13T11:35:48;118349.16;;;-140.64;59.97
7930;BME280;4010;42.698;23.124;2022-09-13T11:38:34;118349.16;;;-140.64;59.93
7930;BME280;4010;42.698;23.124;2022-09-13T11:41:11;118349.16;;;-140.64;69.90
7930;BME280;4010;42.698;23.124;2022-09-13T11:43:56;118349.16;;;-140.64;62.67
7930;BME280;4010;42.698;23.124;2022-09-13T11:46:33;118349.16;;;-140.64;66.73
7930;BME280;4010;42.698;23.124;2022-09-13T11:52:37;118349.16;;;-140.64;62.26
7930;BME280;4010;42.698;23.124;2022-09-13T11:55:13;118349.16;;;-140.64;62.91
7930;BME280;4010;42.698;23.124;2022-09-13T11:57:45;118349.16;;;-140.64;65.94
7930;BME280;4010;42.698;23.124;2022-09-13T12:00:19;118349.16;;;-140.64;57.63
7930;BME280;4010;42.698;23.124;2022-09-13T12:02:54;118349.16;;;-140.64;62.54
7930;BME280;4010;42.698;23.124;2022-09-13T12:05:27;118349.16;;;-140.64;59.06
7930;BME280;4010;42.698;23.124;2022-09-13T12:08:00;118349.16;;;-140.64;55.41
7930;BME280;4010;42.698;23.124;2022-09-13T12:10:29;118349.16;;;-140.64;49.65
7930;BME280;4010;42.698;23.124;2022-09-13T12:12:58;118349.16;;;-140.64;53.83
7930;BME280;4010;42.698;23.124;2022-09-13T12:15:34;118349.16;;;-140.64;53.40
7930;BME280;4010;42.698;23.124;2022-09-13T12:18:09;118349.16;;;-140.64;55.01
7930;BME280;4010;42.698;23.124;2022-09-13T12:20:39;118349.16;;;-140.64;54.77
7930;BME280;4010;42.698;23.124;2022-09-13T12:23:11;118349.16;;;-140.64;57.51
7930;BME280;4010;42.698;23.124;2022-09-13T12:25:46;118349.16;;;-140.64;55.77
7930;BME280;4010;42.698;23.124;2022-09-13T12:28:18;118349.16;;;-140.64;59.30
7930;BME280;4010;42.698;23.124;2022-09-13T12:30:53;118349.16;;;-140.64;63.26
7930;BME280;4010;42.698;23.124;2022-09-13T12:33:23;118349.16;;;-140.64;61.70
7930;BME280;4010;42.698;23.124;2022-09-13T12:36:08;118349.16;;;-140.64;64.69
7930;BME280;4010;42.698;23.124;2022-09-13T12:41:54;118349.16;;;-140.64;66.70
7930;BME280;4010;42.698;23.124;2022-09-13T12:44:35;118349.16;;;-140.64;63.03
7930;BME280;4010;42.698;23.124;2022-09-13T12:47:31;118349.16;;;-140.64;62.62
7930;BME280;4010;42.698;23.124;2022-09-13T12:53:03;118349.16;;;-140.64;65.35
7930;BME280;4010;42.698;23.124;2022-09-13T12:55:53;118349.16;;;-140.64;70.81
7930;BME280;4010;42.698;23.124;2022-09-13T12:58:37;118349.16;;;-140.64;66.55
7930;BME280;4010;42.698;23.124;2022-09-13T13:01:09;118349.16;;;-140.64;69.35
7930;BME280;4010;42.698;23.124;2022-09-13T13:03:47;118349.16;;;-140.64;64.98
7930;BME280;4010;42.698;23.124;2022-09-13T13:06:26;118349.16;;;-140.64;61.12
7930;BME280;4010;42.698;23.124;2022-09-13T13:08:56;118349.16;;;-140.64;62.67
7930;BME280;4010;42.698;23.124;2022-09-13T13:11:25;118349.16;;;-140.64;54.39
7930;BME280;4010;42.698;23.124;2022-09-13T13:13:54;118349.16;;;-140.64;57.73
7930;BME280;4010;42.698;23.124;2022-09-13T13:16:26;118349.16;;;-140.64;60.52